sensor_id;sensor_type;location;lat;lon;timestamp;P1;durP1;ratioP1;P2;durP2;ratioP2
57605;SDS011;43430;48.204;11.556;2023-03-08T00:02:19;16.42;;;6.45;;
57605;SDS011;43430;48.204;11.556;2023-03-08T00:04:44;14.95;;;7.03;;
57605;SDS011;43430;48.204;11.556;2023-03-08T00:07:09;13.98;;;6.45;;
57605;SDS011;43430;48.204;11.556;2023-03-08T00:09:36;16.08;;;6.18;;
57605;SDS011;43430;48.204;11.556;2023-03-08T00:12:02;14.65;;;5.72;;
57605;SDS011;43430;48.204;11.556;2023-03-08T00:14:27;17.77;;;6.68;;
57605;SDS011;43430;48.204;11.556;2023-03-08T00:16:52;12.02;;;5.78;;
57605;SDS011;43430;48.204;11.556;2023-03-08T00:19:18;14.98;;;5.65;;
57605;SDS011;43430;48.204;11.556;2023-03-08T00:21:43;15.23;;;5.30;;
57605;SDS011;43430;48.204;11.556;2023-03-08T00:24:10;14.23;;;5.03;;
57605;SDS011;43430;48.204;11.556;2023-03-08T00:26:36;19.42;;;6.35;;
57605;SDS011;43430;48.204;11.556;2023-03-08T00:29:02;13.73;;;5.68;;
57605;SDS011;43430;48.204;11.556;2023-03-08T00:31:27;14.10;;;5.38;;
57605;SDS011;43430;48.204;11.556;2023-03-08T00:33:53;16.27;;;5.80;;
57605;SDS011;43430;48.204;11.556;2023-03-08T00:36:19;12.05;;;5.43;;
57605;SDS011;43430;48.204;11.556;2023-03-08T00:38:45;12.93;;;5.53;;
57605;SDS011;43430;48.204;11.556;2023-03-08T00:41:15;14.43;;;6.40;;
57605;SDS011;43430;48.204;11.556;2023-03-08T00:43:41;12.27;;;5.43;;
57605;SDS011;43430;48.204;11.556;2023-03-08T00:46:07;15.18;;;5.78;;
57605;SDS011;43430;48.204;11.556;2023-03-08T00:48:33;13.43;;;5.30;;
57605;SDS011;43430;48.204;11.556;2023-03-08T00:50:58;10.57;;;4.95;;
57605;SDS011;43430;48.204;11.556;2023-03-08T00:53:24;12.35;;;4.72;;
57605;SDS011;43430;48.204;11.556;2023-03-08T00:55:50;14.10;;;5.65;;
57605;SDS011;43430;48.204;11.556;2023-03-08T00:58:17;13.07;;;4.63;;
57605;SDS011;43430;48.204;11.556;2023-03-08T01:00:43;15.40;;;5.38;;
57605;SDS011;43430;48.204;11.556;2023-03-08T01:03:09;16.60;;;6.22;;
57605;SDS011;43430;48.204;11.556;2023-03-08T01:05:38;14.75;;;5.80;;
57605;SDS011;43430;48.204;11.556;2023-03-08T01:08:14;15.05;;;6.25;;
57605;SDS011;43430;48.204;11.556;2023-03-08T01:10:45;14.27;;;5.90;;
57605;SDS011;43430;48.204;11.556;2023-03-08T01:13:19;11.48;;;4.88;;
57605;SDS011;43430;48.204;11.556;2023-03-08T01:15:45;13.43;;;4.95;;
57605;SDS011;43430;48.204;11.556;2023-03-08T01:18:11;13.95;;;5.15;;
57605;SDS011;43430;48.204;11.556;2023-03-08T01:20:37;13.23;;;4.90;;
57605;SDS011;43430;48.204;11.556;2023-03-08T01:23:02;11.48;;;5.47;;
57605;SDS011;43430;48.204;11.556;2023-03-08T01:25:28;12.27;;;5.05;;
57605;SDS011;43430;48.204;11.556;2023-03-08T01:27:53;13.43;;;5.10;;
57605;SDS011;43430;48.204;11.556;2023-03-08T01:30:19;17.08;;;4.68;;
57605;SDS011;43430;48.204;11.556;2023-03-08T01:32:44;14.82;;;5.57;;
57605;SDS011;43430;48.204;11.556;2023-03-08T01:35:10;14.23;;;4.75;;
57605;SDS011;43430;48.204;11.556;2023-03-08T01:37:35;14.18;;;5.15;;
57605;SDS011;43430;48.204;11.556;2023-03-08T01:40:01;12.43;;;4.30;;
57605;SDS011;43430;48.204;11.556;2023-03-08T01:42:28;10.13;;;3.88;;
57605;SDS011;43430;48.204;11.556;2023-03-08T01:44:55;11.93;;;4.25;;
57605;SDS011;43430;48.204;11.556;2023-03-08T01:47:23;11.95;;;4.65;;
57605;SDS011;43430;48.204;11.556;2023-03-08T01:49:51;14.77;;;5.15;;
57605;SDS011;43430;48.204;11.556;2023-03-08T01:52:27;11.73;;;4.50;;
57605;SDS011;43430;48.204;11.556;2023-03-08T01:55:00;12.73;;;5.70;;
57605;SDS011;43430;48.204;11.556;2023-03-08T01:59:57;10.48;;;4.60;;
57605;SDS011;43430;48.204;11.556;2023-03-08T02:02:29;9.40;;;4.13;;
57605;SDS011;43430;48.204;11.556;2023-03-08T02:05:00;12.93;;;4.60;;
57605;SDS011;43430;48.204;11.556;2023-03-08T02:07:26;12.43;;;4.70;;
57605;SDS011;43430;48.204;11.556;2023-03-08T02:09:51;11.25;;;4.78;;
57605;SDS011;43430;48.204;11.556;2023-03-08T02:12:17;13.70;;;5.15;;
57605;SDS011;43430;48.204;11.556;2023-03-08T02:14:43;14.02;;;5.10;;
57605;SDS011;43430;48.204;11.556;2023-03-08T02:17:09;12.73;;;5.10;;
57605;SDS011;43430;48.204;11.556;2023-03-08T02:22:48;14.38;;;5.47;;
57605;SDS011;43430;48.204;11.556;2023-03-08T02:25:23;17.17;;;5.95;;
57605;SDS011;43430;48.204;11.556;2023-03-08T02:27:50;10.40;;;4.20;;
57605;SDS011;43430;48.204;11.556;2023-03-08T02:30:22;14.43;;;5.22;;
57605;SDS011;43430;48.204;11.556;2023-03-08T02:32:49;12.73;;;4.88;;
57605;SDS011;43430;48.204;11.556;2023-03-08T02:35:15;11.75;;;4.32;;
57605;SDS011;43430;48.204;11.556;2023-03-08T02:37:40;15.20;;;4.70;;
57605;SDS011;43430;48.204;11.556;2023-03-08T02:40:06;15.90;;;5.15;;
57605;SDS011;43430;48.204;11.556;2023-03-08T02:42:32;11.57;;;4.72;;
57605;SDS011;43430;48.204;11.556;2023-03-08T02:44:57;13.38;;;4.85;;
57605;SDS011;43430;48.204;11.556;2023-03-08T02:47:23;12.43;;;4.97;;
57605;SDS011;43430;48.204;11.556;2023-03-08T02:49:48;13.60;;;5.32;;
57605;SDS011;43430;48.204;11.556;2023-03-08T02:52:14;13.43;;;5.25;;
57605;SDS011;43430;48.204;11.556;2023-03-08T02:54:39;12.43;;;5.10;;
57605;SDS011;43430;48.204;11.556;2023-03-08T02:57:04;14.68;;;5.10;;
57605;SDS011;43430;48.204;11.556;2023-03-08T02:59:30;13.30;;;4.45;;
57605;SDS011;43430;48.204;11.556;2023-03-08T03:01:55;11.68;;;5.00;;
57605;SDS011;43430;48.204;11.556;2023-03-08T03:04:21;12.75;;;5.88;;
57605;SDS011;43430;48.204;11.556;2023-03-08T03:06:47;11.88;;;5.03;;
57605;SDS011;43430;48.204;11.556;2023-03-08T03:09:12;15.82;;;5.00;;
57605;SDS011;43430;48.204;11.556;2023-03-08T03:11:38;13.05;;;5.47;;
57605;SDS011;43430;48.204;11.556;2023-03-08T03:14:04;19.67;;;5.60;;
57605;SDS011;43430;48.204;11.556;2023-03-08T03:16:30;12.80;;;5.35;;
57605;SDS011;43430;48.204;11.556;2023-03-08T03:18:55;15.32;;;4.65;;
57605;SDS011;43430;48.204;11.556;2023-03-08T03:21:21;13.52;;;5.35;;
57605;SDS011;43430;48.204;11.556;2023-03-08T03:23:47;14.65;;;5.68;;
57605;SDS011;43430;48.204;11.556;2023-03-08T03:26:15;13.73;;;5.40;;
57605;SDS011;43430;48.204;11.556;2023-03-08T03:28:43;13.55;;;4.75;;
57605;SDS011;43430;48.204;11.556;2023-03-08T03:31:13;15.00;;;5.70;;
57605;SDS011;43430;48.204;11.556;2023-03-08T03:33:40;12.20;;;4.55;;
57605;SDS011;43430;48.204;11.556;2023-03-08T03:36:06;15.30;;;5.30;;
57605;SDS011;43430;48.204;11.556;2023-03-08T03:38:34;11.02;;;4.95;;
57605;SDS011;43430;48.204;11.556;2023-03-08T03:41:04;14.93;;;5.57;;
57605;SDS011;43430;48.204;11.556;2023-03-08T03:43:31;15.02;;;5.80;;
57605;SDS011;43430;48.204;11.556;2023-03-08T03:45:58;13.55;;;5.70;;
57605;SDS011;43430;48.204;11.556;2023-03-08T03:48:24;16.45;;;5.53;;
57605;SDS011;43430;48.204;11.556;2023-03-08T03:50:54;18.55;;;5.57;;
57605;SDS011;43430;48.204;11.556;2023-03-08T03:53:21;14.15;;;5.75;;
57605;SDS011;43430;48.204;11.556;2023-03-08T03:55:47;13.93;;;5.60;;
57605;SDS011;43430;48.204;11.556;2023-03-08T03:58:12;11.48;;;5.15;;
57605;SDS011;43430;48.204;11.556;2023-03-08T04:00:38;18.23;;;6.10;;
57605;SDS011;43430;48.204;11.556;2023-03-08T04:03:03;11.95;;;5.13;;
57605;SDS011;43430;48.204;11.556;2023-03-08T04:05:29;13.55;;;6.32;;
57605;SDS011;43430;48.204;11.556;2023-03-08T04:07:54;14.27;;;5.68;;
57605;SDS011;43430;48.204;11.556;2023-03-08T04:10:19;15.18;;;5.93;;
57605;SDS011;43430;48.204;11.556;2023-03-08T04:12:47;15.35;;;6.22;;
57605;SDS011;43430;48.204;11.556;2023-03-08T04:15:13;17.63;;;6.20;;
57605;SDS011;43430;48.204;11.556;2023-03-08T04:17:39;12.38;;;4.90;;
57605;SDS011;43430;48.204;11.556;2023-03-08T04:20:04;16.83;;;6.30;;
57605;SDS011;43430;48.204;11.556;2023-03-08T04:22:30;19.23;;;6.57;;
57605;SDS011;43430;48.204;11.556;2023-03-08T04:24:56;14.68;;;5.97;;
57605;SDS011;43430;48.204;11.556;2023-03-08T04:27:21;18.35;;;6.25;;
57605;SDS011;43430;48.204;11.556;2023-03-08T04:29:46;14.90;;;6.47;;
57605;SDS011;43430;48.204;11.556;2023-03-08T04:32:12;15.45;;;5.88;;
57605;SDS011;43430;48.204;11.556;2023-03-08T04:34:37;17.77;;;6.15;;
57605;SDS011;43430;48.204;11.556;2023-03-08T04:37:03;16.52;;;5.90;;
57605;SDS011;43430;48.204;11.556;2023-03-08T04:39:28;15.88;;;6.00;;
57605;SDS011;43430;48.204;11.556;2023-03-08T04:41:53;14.85;;;6.35;;
57605;SDS011;43430;48.204;11.556;2023-03-08T04:44:19;15.77;;;6.28;;
57605;SDS011;43430;48.204;11.556;2023-03-08T04:46:44;14.52;;;6.05;;
57605;SDS011;43430;48.204;11.556;2023-03-08T04:49:09;16.52;;;6.95;;
57605;SDS011;43430;48.204;11.556;2023-03-08T04:51:35;17.50;;;6.75;;
57605;SDS011;43430;48.204;11.556;2023-03-08T04:54:00;17.73;;;5.32;;
57605;SDS011;43430;48.204;11.556;2023-03-08T04:56:28;16.60;;;6.63;;
57605;SDS011;43430;48.204;11.556;2023-03-08T04:58:53;16.27;;;6.30;;
57605;SDS011;43430;48.204;11.556;2023-03-08T05:01:19;14.68;;;5.75;;
57605;SDS011;43430;48.204;11.556;2023-03-08T05:03:47;14.23;;;5.97;;
57605;SDS011;43430;48.204;11.556;2023-03-08T05:06:15;15.60;;;5.68;;
57605;SDS011;43430;48.204;11.556;2023-03-08T05:08:41;16.55;;;6.55;;
57605;SDS011;43430;48.204;11.556;2023-03-08T05:11:07;15.80;;;6.07;;
57605;SDS011;43430;48.204;11.556;2023-03-08T05:13:34;17.52;;;6.00;;
57605;SDS011;43430;48.204;11.556;2023-03-08T05:16:02;15.68;;;7.22;;
57605;SDS011;43430;48.204;11.556;2023-03-08T05:18:28;15.40;;;6.57;;
57605;SDS011;43430;48.204;11.556;2023-03-08T05:20:58;15.45;;;6.68;;
57605;SDS011;43430;48.204;11.556;2023-03-08T05:23:26;15.10;;;6.15;;
57605;SDS011;43430;48.204;11.556;2023-03-08T05:25:53;16.45;;;6.57;;
57605;SDS011;43430;48.204;11.556;2023-03-08T05:28:20;15.90;;;6.70;;
57605;SDS011;43430;48.204;11.556;2023-03-08T05:30:47;16.35;;;6.18;;
57605;SDS011;43430;48.204;11.556;2023-03-08T05:33:12;16.13;;;6.82;;
57605;SDS011;43430;48.204;11.556;2023-03-08T05:35:39;21.35;;;8.57;;
57605;SDS011;43430;48.204;11.556;2023-03-08T05:38:04;20.13;;;7.10;;
57605;SDS011;43430;48.204;11.556;2023-03-08T05:40:29;15.88;;;6.13;;
57605;SDS011;43430;48.204;11.556;2023-03-08T05:42:55;16.88;;;7.28;;
57605;SDS011;43430;48.204;11.556;2023-03-08T05:45:20;17.55;;;7.45;;
57605;SDS011;43430;48.204;11.556;2023-03-08T05:47:45;16.98;;;8.38;;
57605;SDS011;43430;48.204;11.556;2023-03-08T05:50:11;19.25;;;7.55;;
57605;SDS011;43430;48.204;11.556;2023-03-08T05:52:36;20.67;;;8.27;;
57605;SDS011;43430;48.204;11.556;2023-03-08T05:55:02;18.52;;;7.63;;
57605;SDS011;43430;48.204;11.556;2023-03-08T05:57:29;17.00;;;6.95;;
57605;SDS011;43430;48.204;11.556;2023-03-08T05:59:54;17.90;;;7.75;;
57605;SDS011;43430;48.204;11.556;2023-03-08T06:02:20;19.38;;;8.13;;
57605;SDS011;43430;48.204;11.556;2023-03-08T06:04:45;17.20;;;7.75;;
57605;SDS011;43430;48.204;11.556;2023-03-08T06:07:10;17.27;;;7.75;;
57605;SDS011;43430;48.204;11.556;2023-03-08T06:09:36;22.42;;;7.88;;
57605;SDS011;43430;48.204;11.556;2023-03-08T06:12:01;19.23;;;7.65;;
57605;SDS011;43430;48.204;11.556;2023-03-08T06:14:27;20.73;;;7.88;;
57605;SDS011;43430;48.204;11.556;2023-03-08T06:16:52;17.33;;;7.18;;
57605;SDS011;43430;48.204;11.556;2023-03-08T06:19:18;19.90;;;7.90;;
57605;SDS011;43430;48.204;11.556;2023-03-08T06:21:43;18.15;;;7.97;;
57605;SDS011;43430;48.204;11.556;2023-03-08T06:24:08;19.85;;;8.05;;
57605;SDS011;43430;48.204;11.556;2023-03-08T06:26:34;20.50;;;8.23;;
57605;SDS011;43430;48.204;11.556;2023-03-08T06:28:59;21.15;;;8.38;;
57605;SDS011;43430;48.204;11.556;2023-03-08T06:31:24;21.83;;;8.10;;
57605;SDS011;43430;48.204;11.556;2023-03-08T06:33:50;19.58;;;8.48;;
57605;SDS011;43430;48.204;11.556;2023-03-08T06:36:19;20.17;;;8.52;;
57605;SDS011;43430;48.204;11.556;2023-03-08T06:38:45;20.17;;;8.25;;
57605;SDS011;43430;48.204;11.556;2023-03-08T06:41:12;20.67;;;8.38;;
57605;SDS011;43430;48.204;11.556;2023-03-08T06:43:38;20.55;;;8.88;;
57605;SDS011;43430;48.204;11.556;2023-03-08T06:46:05;19.00;;;8.93;;
57605;SDS011;43430;48.204;11.556;2023-03-08T06:48:32;19.63;;;8.70;;
57605;SDS011;43430;48.204;11.556;2023-03-08T06:50:58;20.48;;;8.65;;
57605;SDS011;43430;48.204;11.556;2023-03-08T06:53:24;20.13;;;8.38;;
57605;SDS011;43430;48.204;11.556;2023-03-08T06:55:49;20.35;;;8.70;;
57605;SDS011;43430;48.204;11.556;2023-03-08T06:58:15;21.42;;;7.68;;
57605;SDS011;43430;48.204;11.556;2023-03-08T07:00:40;19.70;;;8.38;;
57605;SDS011;43430;48.204;11.556;2023-03-08T07:03:09;19.63;;;8.32;;
57605;SDS011;43430;48.204;11.556;2023-03-08T07:05:36;17.70;;;7.95;;
57605;SDS011;43430;48.204;11.556;2023-03-08T07:08:02;17.23;;;7.47;;
57605;SDS011;43430;48.204;11.556;2023-03-08T07:10:27;17.63;;;7.18;;
57605;SDS011;43430;48.204;11.556;2023-03-08T07:12:55;18.40;;;7.68;;
57605;SDS011;43430;48.204;11.556;2023-03-08T07:15:21;16.67;;;7.80;;
57605;SDS011;43430;48.204;11.556;2023-03-08T07:17:48;20.75;;;8.85;;
57605;SDS011;43430;48.204;11.556;2023-03-08T07:20:18;19.10;;;8.60;;
57605;SDS011;43430;48.204;11.556;2023-03-08T07:22:44;20.58;;;7.68;;
57605;SDS011;43430;48.204;11.556;2023-03-08T07:25:11;19.17;;;7.72;;
57605;SDS011;43430;48.204;11.556;2023-03-08T07:27:41;17.08;;;8.35;;
57605;SDS011;43430;48.204;11.556;2023-03-08T07:30:07;18.33;;;9.07;;
57605;SDS011;43430;48.204;11.556;2023-03-08T07:32:36;16.92;;;8.45;;
57605;SDS011;43430;48.204;11.556;2023-03-08T07:35:04;18.27;;;7.85;;
57605;SDS011;43430;48.204;11.556;2023-03-08T07:37:31;16.38;;;7.15;;
57605;SDS011;43430;48.204;11.556;2023-03-08T07:39:56;17.75;;;7.88;;
57605;SDS011;43430;48.204;11.556;2023-03-08T07:42:22;20.80;;;8.20;;
57605;SDS011;43430;48.204;11.556;2023-03-08T07:44:47;19.33;;;7.70;;
57605;SDS011;43430;48.204;11.556;2023-03-08T07:47:12;15.68;;;6.85;;
57605;SDS011;43430;48.204;11.556;2023-03-08T07:49:38;14.32;;;6.90;;
57605;SDS011;43430;48.204;11.556;2023-03-08T07:52:03;18.27;;;7.47;;
57605;SDS011;43430;48.204;11.556;2023-03-08T07:54:29;19.83;;;7.78;;
57605;SDS011;43430;48.204;11.556;2023-03-08T07:56:54;16.27;;;7.90;;
57605;SDS011;43430;48.204;11.556;2023-03-08T07:59:20;17.70;;;7.65;;
57605;SDS011;43430;48.204;11.556;2023-03-08T08:01:46;15.85;;;7.07;;
57605;SDS011;43430;48.204;11.556;2023-03-08T08:04:12;18.05;;;7.35;;
57605;SDS011;43430;48.204;11.556;2023-03-08T08:06:37;16.85;;;8.10;;
57605;SDS011;43430;48.204;11.556;2023-03-08T08:09:03;16.95;;;7.97;;
57605;SDS011;43430;48.204;11.556;2023-03-08T08:11:29;15.63;;;7.18;;
57605;SDS011;43430;48.204;11.556;2023-03-08T08:13:55;16.08;;;7.53;;
57605;SDS011;43430;48.204;11.556;2023-03-08T08:16:20;20.25;;;8.98;;
57605;SDS011;43430;48.204;11.556;2023-03-08T08:18:46;17.75;;;8.55;;
57605;SDS011;43430;48.204;11.556;2023-03-08T08:21:12;16.48;;;8.38;;
57605;SDS011;43430;48.204;11.556;2023-03-08T08:23:39;18.73;;;8.43;;
57605;SDS011;43430;48.204;11.556;2023-03-08T08:26:06;19.17;;;8.35;;
57605;SDS011;43430;48.204;11.556;2023-03-08T08:28:38;22.88;;;7.97;;
57605;SDS011;43430;48.204;11.556;2023-03-08T08:31:05;19.40;;;7.43;;
57605;SDS011;43430;48.204;11.556;2023-03-08T08:33:39;15.88;;;7.97;;
57605;SDS011;43430;48.204;11.556;2023-03-08T08:36:05;19.38;;;8.80;;
57605;SDS011;43430;48.204;11.556;2023-03-08T08:38:32;18.58;;;8.10;;
57605;SDS011;43430;48.204;11.556;2023-03-08T08:41:01;18.90;;;8.13;;
57605;SDS011;43430;48.204;11.556;2023-03-08T08:43:29;18.98;;;7.68;;
57605;SDS011;43430;48.204;11.556;2023-03-08T08:45:56;19.67;;;8.68;;
57605;SDS011;43430;48.204;11.556;2023-03-08T08:48:23;15.40;;;7.35;;
57605;SDS011;43430;48.204;11.556;2023-03-08T08:50:51;16.70;;;7.00;;
57605;SDS011;43430;48.204;11.556;2023-03-08T08:53:17;17.48;;;7.57;;
57605;SDS011;43430;48.204;11.556;2023-03-08T08:55:44;18.95;;;7.97;;
57605;SDS011;43430;48.204;11.556;2023-03-08T08:58:09;16.58;;;7.32;;
57605;SDS011;43430;48.204;11.556;2023-03-08T09:00:35;19.38;;;8.25;;
57605;SDS011;43430;48.204;11.556;2023-03-08T09:03:02;16.88;;;7.90;;
57605;SDS011;43430;48.204;11.556;2023-03-08T09:05:28;17.17;;;8.13;;
57605;SDS011;43430;48.204;11.556;2023-03-08T09:07:54;16.25;;;7.78;;
57605;SDS011;43430;48.204;11.556;2023-03-08T09:10:22;15.15;;;7.68;;
57605;SDS011;43430;48.204;11.556;2023-03-08T09:12:49;16.30;;;7.07;;
57605;SDS011;43430;48.204;11.556;2023-03-08T09:15:14;15.35;;;7.50;;
57605;SDS011;43430;48.204;11.556;2023-03-08T09:17:40;13.30;;;6.97;;
57605;SDS011;43430;48.204;11.556;2023-03-08T09:20:05;15.70;;;7.20;;
57605;SDS011;43430;48.204;11.556;2023-03-08T09:22:37;16.30;;;6.75;;
57605;SDS011;43430;48.204;11.556;2023-03-08T09:25:04;16.92;;;6.75;;
57605;SDS011;43430;48.204;11.556;2023-03-08T09:27:30;15.48;;;6.70;;
57605;SDS011;43430;48.204;11.556;2023-03-08T09:29:56;16.30;;;7.13;;
57605;SDS011;43430;48.204;11.556;2023-03-08T09:32:22;16.08;;;6.57;;
57605;SDS011;43430;48.204;11.556;2023-03-08T09:34:47;23.45;;;7.22;;
57605;SDS011;43430;48.204;11.556;2023-03-08T09:37:13;14.15;;;7.13;;
57605;SDS011;43430;48.204;11.556;2023-03-08T09:39:38;18.10;;;7.25;;
57605;SDS011;43430;48.204;11.556;2023-03-08T09:42:04;17.15;;;7.15;;
57605;SDS011;43430;48.204;11.556;2023-03-08T09:47:37;17.08;;;6.90;;
57605;SDS011;43430;48.204;11.556;2023-03-08T09:52:40;16.77;;;7.78;;
57605;SDS011;43430;48.204;11.556;2023-03-08T09:55:29;15.90;;;7.57;;
57605;SDS011;43430;48.204;11.556;2023-03-08T09:58:17;18.80;;;8.35;;
57605;SDS011;43430;48.204;11.556;2023-03-08T10:00:43;25.10;;;9.00;;
57605;SDS011;43430;48.204;11.556;2023-03-08T10:03:29;21.20;;;9.20;;
57605;SDS011;43430;48.204;11.556;2023-03-08T10:06:48;17.30;;;7.95;;
57605;SDS011;43430;48.204;11.556;2023-03-08T10:11:53;18.95;;;8.93;;
57605;SDS011;43430;48.204;11.556;2023-03-08T10:14:49;20.08;;;8.35;;
57605;SDS011;43430;48.204;11.556;2023-03-08T10:17:20;17.65;;;8.07;;
57605;SDS011;43430;48.204;11.556;2023-03-08T10:20:04;20.58;;;9.82;;
57605;SDS011;43430;48.204;11.556;2023-03-08T10:22:36;17.48;;;7.47;;
57605;SDS011;43430;48.204;11.556;2023-03-08T10:27:47;17.98;;;8.00;;
57605;SDS011;43430;48.204;11.556;2023-03-08T10:30:16;17.08;;;8.70;;
57605;SDS011;43430;48.204;11.556;2023-03-08T10:32:44;21.15;;;8.55;;
57605;SDS011;43430;48.204;11.556;2023-03-08T10:35:11;24.83;;;8.68;;
57605;SDS011;43430;48.204;11.556;2023-03-08T10:37:37;18.08;;;7.88;;
57605;SDS011;43430;48.204;11.556;2023-03-08T10:40:07;18.52;;;8.30;;
57605;SDS011;43430;48.204;11.556;2023-03-08T10:42:41;16.33;;;8.48;;
57605;SDS011;43430;48.204;11.556;2023-03-08T10:45:17;21.95;;;9.52;;
57605;SDS011;43430;48.204;11.556;2023-03-08T10:47:59;19.95;;;9.20;;
57605;SDS011;43430;48.204;11.556;2023-03-08T10:50:35;15.43;;;6.57;;
57605;SDS011;43430;48.204;11.556;2023-03-08T10:55:44;18.40;;;6.70;;
57605;SDS011;43430;48.204;11.556;2023-03-08T10:58:28;15.68;;;5.53;;
57605;SDS011;43430;48.204;11.556;2023-03-08T11:00:55;13.07;;;5.57;;
57605;SDS011;43430;48.204;11.556;2023-03-08T11:03:23;14.38;;;5.82;;
57605;SDS011;43430;48.204;11.556;2023-03-08T11:05:52;13.00;;;5.18;;
57605;SDS011;43430;48.204;11.556;2023-03-08T11:08:30;14.52;;;6.60;;
57605;SDS011;43430;48.204;11.556;2023-03-08T11:11:06;10.75;;;5.78;;
57605;SDS011;43430;48.204;11.556;2023-03-08T11:24:32;12.63;;;3.85;;
57605;SDS011;43430;48.204;11.556;2023-03-08T11:27:21;10.52;;;3.47;;
57605;SDS011;43430;48.204;11.556;2023-03-08T11:32:52;12.82;;;4.82;;
57605;SDS011;43430;48.204;11.556;2023-03-08T11:38:39;13.63;;;5.43;;
57605;SDS011;43430;48.204;11.556;2023-03-08T11:41:18;10.25;;;4.47;;
57605;SDS011;43430;48.204;11.556;2023-03-08T11:52:46;6.93;;;2.00;;
57605;SDS011;43430;48.204;11.556;2023-03-08T12:00:44;8.02;;;2.83;;
57605;SDS011;43430;48.204;11.556;2023-03-08T12:03:13;10.70;;;3.53;;
57605;SDS011;43430;48.204;11.556;2023-03-08T12:08:23;9.07;;;3.38;;
57605;SDS011;43430;48.204;11.556;2023-03-08T12:13:33;8.25;;;3.35;;
57605;SDS011;43430;48.204;11.556;2023-03-08T12:16:06;8.73;;;3.35;;
57605;SDS011;43430;48.204;11.556;2023-03-08T12:27:03;10.75;;;4.65;;
57605;SDS011;43430;48.204;11.556;2023-03-08T12:29:31;8.15;;;3.95;;
57605;SDS011;43430;48.204;11.556;2023-03-08T12:32:18;9.13;;;3.97;;
57605;SDS011;43430;48.204;11.556;2023-03-08T12:34:45;8.00;;;3.95;;
57605;SDS011;43430;48.204;11.556;2023-03-08T12:37:25;9.63;;;3.63;;
57605;SDS011;43430;48.204;11.556;2023-03-08T12:40:06;7.15;;;3.28;;
57605;SDS011;43430;48.204;11.556;2023-03-08T12:43:02;7.22;;;3.33;;
57605;SDS011;43430;48.204;11.556;2023-03-08T12:45:29;7.68;;;3.40;;
57605;SDS011;43430;48.204;11.556;2023-03-08T12:50:30;6.85;;;3.00;;
57605;SDS011;43430;48.204;11.556;2023-03-08T12:56:05;5.95;;;2.70;;
57605;SDS011;43430;48.204;11.556;2023-03-08T12:58:38;6.20;;;2.88;;
57605;SDS011;43430;48.204;11.556;2023-03-08T13:03:59;7.28;;;2.80;;
57605;SDS011;43430;48.204;11.556;2023-03-08T13:11:53;5.25;;;1.80;;
57605;SDS011;43430;48.204;11.556;2023-03-08T13:26:13;3.35;;;0.47;;
57605;SDS011;43430;48.204;11.556;2023-03-08T13:28:33;1.45;;;0.32;;
57605;SDS011;43430;48.204;11.556;2023-03-08T13:31:01;2.90;;;0.60;;
57605;SDS011;43430;48.204;11.556;2023-03-08T13:33:37;2.72;;;0.55;;
57605;SDS011;43430;48.204;11.556;2023-03-08T13:36:19;3.08;;;0.50;;
57605;SDS011;43430;48.204;11.556;2023-03-08T13:38:57;1.42;;;0.30;;
57605;SDS011;43430;48.204;11.556;2023-03-08T13:44:05;2.05;;;0.50;;
57605;SDS011;43430;48.204;11.556;2023-03-08T13:46:33;2.55;;;0.70;;
57605;SDS011;43430;48.204;11.556;2023-03-08T13:48:59;1.60;;;0.40;;
57605;SDS011;43430;48.204;11.556;2023-03-08T13:51:26;3.85;;;0.70;;
57605;SDS011;43430;48.204;11.556;2023-03-08T13:53:52;3.25;;;0.50;;
57605;SDS011;43430;48.204;11.556;2023-03-08T13:56:21;1.33;;;0.40;;
57605;SDS011;43430;48.204;11.556;2023-03-08T13:58:49;1.77;;;0.30;;
57605;SDS011;43430;48.204;11.556;2023-03-08T14:01:20;2.17;;;0.30;;
57605;SDS011;43430;48.204;11.556;2023-03-08T14:03:47;1.75;;;0.40;;
57605;SDS011;43430;48.204;11.556;2023-03-08T14:08:53;2.90;;;0.40;;
57605;SDS011;43430;48.204;11.556;2023-03-08T14:11:24;1.98;;;0.40;;
57605;SDS011;43430;48.204;11.556;2023-03-08T14:13:53;3.30;;;0.25;;
57605;SDS011;43430;48.204;11.556;2023-03-08T14:18:54;0.95;;;0.25;;
57605;SDS011;43430;48.204;11.556;2023-03-08T14:21:24;2.47;;;0.32;;
57605;SDS011;43430;48.204;11.556;2023-03-08T14:23:53;2.92;;;0.40;;
57605;SDS011;43430;48.204;11.556;2023-03-08T14:26:24;6.97;;;0.38;;
57605;SDS011;43430;48.204;11.556;2023-03-08T14:31:37;4.10;;;0.40;;
57605;SDS011;43430;48.204;11.556;2023-03-08T14:34:16;1.02;;;0.22;;
57605;SDS011;43430;48.204;11.556;2023-03-08T14:37:41;2.42;;;0.40;;
57605;SDS011;43430;48.204;11.556;2023-03-08T14:39:39;1.77;;;0.30;;
57605;SDS011;43430;48.204;11.556;2023-03-08T14:42:09;1.83;;;0.50;;
57605;SDS011;43430;48.204;11.556;2023-03-08T14:44:55;1.98;;;0.47;;
57605;SDS011;43430;48.204;11.556;2023-03-08T14:47:27;5.97;;;0.47;;
57605;SDS011;43430;48.204;11.556;2023-03-08T14:49:54;1.42;;;0.45;;
57605;SDS011;43430;48.204;11.556;2023-03-08T14:52:25;3.17;;;0.47;;
57605;SDS011;43430;48.204;11.556;2023-03-08T14:54:52;2.55;;;0.40;;
57605;SDS011;43430;48.204;11.556;2023-03-08T14:57:24;1.77;;;0.30;;
57605;SDS011;43430;48.204;11.556;2023-03-08T14:59:52;1.63;;;0.47;;
57605;SDS011;43430;48.204;11.556;2023-03-08T15:02:31;2.70;;;0.45;;
57605;SDS011;43430;48.204;11.556;2023-03-08T15:04:56;1.40;;;0.40;;
57605;SDS011;43430;48.204;11.556;2023-03-08T15:07:22;2.85;;;0.40;;
57605;SDS011;43430;48.204;11.556;2023-03-08T15:09:48;2.70;;;0.68;;
57605;SDS011;43430;48.204;11.556;2023-03-08T15:12:15;2.10;;;0.77;;
57605;SDS011;43430;48.204;11.556;2023-03-08T15:14:42;2.08;;;0.55;;
57605;SDS011;43430;48.204;11.556;2023-03-08T15:17:11;3.58;;;0.60;;
57605;SDS011;43430;48.204;11.556;2023-03-08T15:19:36;2.25;;;0.50;;
57605;SDS011;43430;48.204;11.556;2023-03-08T15:22:03;1.02;;;0.30;;
57605;SDS011;43430;48.204;11.556;2023-03-08T15:24:29;2.95;;;0.40;;
57605;SDS011;43430;48.204;11.556;2023-03-08T15:26:54;2.90;;;0.85;;
57605;SDS011;43430;48.204;11.556;2023-03-08T15:29:31;1.73;;;0.30;;
57605;SDS011;43430;48.204;11.556;2023-03-08T15:31:58;1.80;;;0.40;;
57605;SDS011;43430;48.204;11.556;2023-03-08T15:34:24;4.63;;;0.43;;
57605;SDS011;43430;48.204;11.556;2023-03-08T15:36:50;1.63;;;0.32;;
57605;SDS011;43430;48.204;11.556;2023-03-08T15:39:17;2.55;;;0.63;;
57605;SDS011;43430;48.204;11.556;2023-03-08T15:41:43;4.50;;;0.50;;
57605;SDS011;43430;48.204;11.556;2023-03-08T15:44:10;4.15;;;0.47;;
57605;SDS011;43430;48.204;11.556;2023-03-08T15:46:35;3.15;;;0.70;;
57605;SDS011;43430;48.204;11.556;2023-03-08T15:49:01;4.40;;;0.63;;
57605;SDS011;43430;48.204;11.556;2023-03-08T15:51:28;1.33;;;0.30;;
57605;SDS011;43430;48.204;11.556;2023-03-08T15:53:55;2.47;;;0.60;;
57605;SDS011;43430;48.204;11.556;2023-03-08T15:56:20;3.25;;;0.60;;
57605;SDS011;43430;48.204;11.556;2023-03-08T15:58:46;2.33;;;0.45;;
57605;SDS011;43430;48.204;11.556;2023-03-08T16:01:12;3.85;;;0.70;;
57605;SDS011;43430;48.204;11.556;2023-03-08T16:03:38;7.50;;;0.52;;
57605;SDS011;43430;48.204;11.556;2023-03-08T16:06:08;1.77;;;0.40;;
57605;SDS011;43430;48.204;11.556;2023-03-08T16:08:34;2.90;;;0.65;;
57605;SDS011;43430;48.204;11.556;2023-03-08T16:11:00;4.25;;;0.85;;